sensor_id;sensor_type;location;lat;lon;timestamp;P1;durP1;ratioP1;P2;durP2;ratioP2
10088;SDS011;51898;49.864;8.550;2023-02-04T00:01:40;15.77;;;4.10;;
10088;SDS011;51898;49.864;8.550;2023-02-04T00:04:42;11.40;;;3.50;;
10088;SDS011;51898;49.864;8.550;2023-02-04T00:07:44;13.00;;;4.07;;
10088;SDS011;51898;49.864;8.550;2023-02-04T00:10:46;8.60;;;4.13;;
10088;SDS011;51898;49.864;8.550;2023-02-04T00:13:47;12.33;;;4.13;;
10088;SDS011;51898;49.864;8.550;2023-02-04T00:16:49;9.90;;;4.00;;
10088;SDS011;51898;49.864;8.550;2023-02-04T00:19:50;11.27;;;4.27;;
10088;SDS011;51898;49.864;8.550;2023-02-04T00:22:52;10.17;;;4.10;;
10088;SDS011;51898;49.864;8.550;2023-02-04T00:25:54;5.20;;;3.30;;
10088;SDS011;51898;49.864;8.550;2023-02-04T00:28:58;11.10;;;3.80;;
10088;SDS011;51898;49.864;8.550;2023-02-04T00:31:59;8.13;;;2.93;;
10088;SDS011;51898;49.864;8.550;2023-02-04T00:35:01;12.33;;;4.40;;
10088;SDS011;51898;49.864;8.550;2023-02-04T00:38:05;10.13;;;2.80;;
10088;SDS011;51898;49.864;8.550;2023-02-04T00:41:07;9.13;;;3.47;;
10088;SDS011;51898;49.864;8.550;2023-02-04T00:44:09;8.70;;;2.97;;
10088;SDS011;51898;49.864;8.550;2023-02-04T00:47:10;13.23;;;3.53;;
10088;SDS011;51898;49.864;8.550;2023-02-04T00:50:13;8.83;;;3.47;;
10088;SDS011;51898;49.864;8.550;2023-02-04T00:53:14;12.30;;;3.77;;
10088;SDS011;51898;49.864;8.550;2023-02-04T00:56:16;9.93;;;3.60;;
10088;SDS011;51898;49.864;8.550;2023-02-04T00:59:18;7.37;;;3.07;;
10088;SDS011;51898;49.864;8.550;2023-02-04T01:02:19;9.20;;;3.30;;
10088;SDS011;51898;49.864;8.550;2023-02-04T01:05:21;13.27;;;3.77;;
10088;SDS011;51898;49.864;8.550;2023-02-04T01:08:23;11.90;;;3.53;;
10088;SDS011;51898;49.864;8.550;2023-02-04T01:11:24;9.17;;;3.70;;
10088;SDS011;51898;49.864;8.550;2023-02-04T01:14:26;11.37;;;4.23;;
10088;SDS011;51898;49.864;8.550;2023-02-04T01:17:28;10.40;;;4.00;;
10088;SDS011;51898;49.864;8.550;2023-02-04T01:20:29;7.93;;;3.43;;
10088;SDS011;51898;49.864;8.550;2023-02-04T01:23:34;12.57;;;3.87;;
10088;SDS011;51898;49.864;8.550;2023-02-04T01:26:36;10.23;;;3.77;;
10088;SDS011;51898;49.864;8.550;2023-02-04T01:29:37;9.23;;;3.13;;
10088;SDS011;51898;49.864;8.550;2023-02-04T01:32:39;11.90;;;3.97;;
10088;SDS011;51898;49.864;8.550;2023-02-04T01:35:41;8.57;;;3.30;;
10088;SDS011;51898;49.864;8.550;2023-02-04T01:38:42;10.10;;;3.67;;
10088;SDS011;51898;49.864;8.550;2023-02-04T01:41:44;8.30;;;3.70;;
10088;SDS011;51898;49.864;8.550;2023-02-04T01:44:46;9.10;;;3.87;;
10088;SDS011;51898;49.864;8.550;2023-02-04T01:47:48;10.10;;;5.80;;
10088;SDS011;51898;49.864;8.550;2023-02-04T01:50:50;8.80;;;4.40;;
10088;SDS011;51898;49.864;8.550;2023-02-04T01:54:00;8.27;;;3.77;;
10088;SDS011;51898;49.864;8.550;2023-02-04T01:57:01;9.20;;;3.47;;
10088;SDS011;51898;49.864;8.550;2023-02-04T02:00:05;8.00;;;3.53;;
10088;SDS011;51898;49.864;8.550;2023-02-04T02:03:13;11.97;;;3.77;;
10088;SDS011;51898;49.864;8.550;2023-02-04T02:06:15;9.47;;;4.23;;
10088;SDS011;51898;49.864;8.550;2023-02-04T02:09:19;8.23;;;3.83;;
10088;SDS011;51898;49.864;8.550;2023-02-04T02:12:21;13.43;;;4.87;;
10088;SDS011;51898;49.864;8.550;2023-02-04T02:15:23;8.67;;;4.17;;
10088;SDS011;51898;49.864;8.550;2023-02-04T02:18:25;11.70;;;4.07;;
10088;SDS011;51898;49.864;8.550;2023-02-04T02:21:37;14.30;;;3.80;;
10088;SDS011;51898;49.864;8.550;2023-02-04T02:24:43;14.40;;;4.50;;
10088;SDS011;51898;49.864;8.550;2023-02-04T02:27:45;10.57;;;4.67;;
10088;SDS011;51898;49.864;8.550;2023-02-04T02:30:47;12.03;;;3.50;;
10088;SDS011;51898;49.864;8.550;2023-02-04T02:33:50;16.17;;;3.73;;
10088;SDS011;51898;49.864;8.550;2023-02-04T02:36:52;7.23;;;3.57;;
10088;SDS011;51898;49.864;8.550;2023-02-04T02:39:54;13.33;;;4.30;;
10088;SDS011;51898;49.864;8.550;2023-02-04T02:42:56;9.07;;;4.10;;
10088;SDS011;51898;49.864;8.550;2023-02-04T02:45:58;10.07;;;4.60;;
10088;SDS011;51898;49.864;8.550;2023-02-04T02:49:00;12.90;;;4.60;;
10088;SDS011;51898;49.864;8.550;2023-02-04T02:52:02;9.80;;;4.00;;
10088;SDS011;51898;49.864;8.550;2023-02-04T02:55:04;13.10;;;4.17;;
10088;SDS011;51898;49.864;8.550;2023-02-04T03:01:23;9.73;;;3.93;;
10088;SDS011;51898;49.864;8.550;2023-02-04T03:04:25;13.20;;;4.27;;
10088;SDS011;51898;49.864;8.550;2023-02-04T03:07:28;15.20;;;4.47;;
10088;SDS011;51898;49.864;8.550;2023-02-04T03:10:29;11.43;;;4.53;;
10088;SDS011;51898;49.864;8.550;2023-02-04T03:13:32;14.90;;;4.50;;
10088;SDS011;51898;49.864;8.550;2023-02-04T03:16:34;8.50;;;4.30;;
10088;SDS011;51898;49.864;8.550;2023-02-04T03:19:37;14.27;;;4.40;;
10088;SDS011;51898;49.864;8.550;2023-02-04T03:22:40;10.83;;;4.67;;
10088;SDS011;51898;49.864;8.550;2023-02-04T03:25:42;16.33;;;5.33;;
10088;SDS011;51898;49.864;8.550;2023-02-04T03:28:44;11.70;;;4.20;;
10088;SDS011;51898;49.864;8.550;2023-02-04T03:31:46;13.17;;;4.60;;
10088;SDS011;51898;49.864;8.550;2023-02-04T03:34:48;11.40;;;4.80;;
10088;SDS011;51898;49.864;8.550;2023-02-04T03:37:49;16.83;;;5.30;;
10088;SDS011;51898;49.864;8.550;2023-02-04T03:40:51;13.43;;;4.70;;
10088;SDS011;51898;49.864;8.550;2023-02-04T03:43:53;16.77;;;4.97;;
10088;SDS011;51898;49.864;8.550;2023-02-04T03:46:54;13.17;;;5.10;;
10088;SDS011;51898;49.864;8.550;2023-02-04T03:49:56;15.80;;;5.30;;
10088;SDS011;51898;49.864;8.550;2023-02-04T03:52:58;11.13;;;4.50;;
10088;SDS011;51898;49.864;8.550;2023-02-04T03:56:00;9.90;;;5.10;;
10088;SDS011;51898;49.864;8.550;2023-02-04T03:59:01;13.03;;;4.50;;
10088;SDS011;51898;49.864;8.550;2023-02-04T04:02:03;12.73;;;4.67;;
10088;SDS011;51898;49.864;8.550;2023-02-04T04:05:05;13.50;;;5.00;;
10088;SDS011;51898;49.864;8.550;2023-02-04T04:08:08;11.57;;;4.57;;
10088;SDS011;51898;49.864;8.550;2023-02-04T04:11:09;11.23;;;4.17;;
10088;SDS011;51898;49.864;8.550;2023-02-04T04:14:12;11.60;;;4.53;;
10088;SDS011;51898;49.864;8.550;2023-02-04T04:17:13;16.43;;;5.20;;
10088;SDS011;51898;49.864;8.550;2023-02-04T04:20:15;16.40;;;4.43;;
10088;SDS011;51898;49.864;8.550;2023-02-04T04:23:17;6.93;;;4.10;;
10088;SDS011;51898;49.864;8.550;2023-02-04T04:26:18;20.20;;;5.40;;
10088;SDS011;51898;49.864;8.550;2023-02-04T04:29:20;15.27;;;4.60;;
10088;SDS011;51898;49.864;8.550;2023-02-04T04:32:22;13.77;;;3.90;;
10088;SDS011;51898;49.864;8.550;2023-02-04T04:35:23;15.87;;;4.33;;
10088;SDS011;51898;49.864;8.550;2023-02-04T04:38:25;9.27;;;3.90;;
10088;SDS011;51898;49.864;8.550;2023-02-04T04:41:27;11.20;;;4.37;;
10088;SDS011;51898;49.864;8.550;2023-02-04T04:44:28;14.37;;;4.27;;
10088;SDS011;51898;49.864;8.550;2023-02-04T04:47:30;12.03;;;4.27;;
10088;SDS011;51898;49.864;8.550;2023-02-04T04:50:31;15.03;;;4.70;;
10088;SDS011;51898;49.864;8.550;2023-02-04T04:53:34;18.17;;;4.33;;
10088;SDS011;51898;49.864;8.550;2023-02-04T04:56:35;13.13;;;4.20;;
10088;SDS011;51898;49.864;8.550;2023-02-04T04:59:37;12.20;;;5.23;;
10088;SDS011;51898;49.864;8.550;2023-02-04T05:02:39;13.93;;;4.57;;
10088;SDS011;51898;49.864;8.550;2023-02-04T05:05:40;16.17;;;3.60;;
10088;SDS011;51898;49.864;8.550;2023-02-04T05:08:42;19.57;;;4.87;;
10088;SDS011;51898;49.864;8.550;2023-02-04T05:11:43;14.83;;;4.80;;
10088;SDS011;51898;49.864;8.550;2023-02-04T05:14:45;20.43;;;4.93;;
10088;SDS011;51898;49.864;8.550;2023-02-04T05:17:47;17.37;;;5.47;;
10088;SDS011;51898;49.864;8.550;2023-02-04T05:20:51;16.53;;;4.80;;
10088;SDS011;51898;49.864;8.550;2023-02-04T05:23:54;12.43;;;4.50;;
10088;SDS011;51898;49.864;8.550;2023-02-04T05:26:56;15.50;;;4.60;;
10088;SDS011;51898;49.864;8.550;2023-02-04T05:29:57;17.53;;;4.43;;
10088;SDS011;51898;49.864;8.550;2023-02-04T05:32:59;18.23;;;5.30;;
10088;SDS011;51898;49.864;8.550;2023-02-04T05:36:01;14.60;;;4.97;;
10088;SDS011;51898;49.864;8.550;2023-02-04T05:39:02;16.00;;;5.17;;
10088;SDS011;51898;49.864;8.550;2023-02-04T05:42:04;14.93;;;5.10;;
10088;SDS011;51898;49.864;8.550;2023-02-04T05:45:06;15.50;;;5.50;;
10088;SDS011;51898;49.864;8.550;2023-02-04T05:48:09;19.97;;;4.53;;
10088;SDS011;51898;49.864;8.550;2023-02-04T05:51:11;8.63;;;4.43;;
10088;SDS011;51898;49.864;8.550;2023-02-04T05:54:13;18.50;;;6.13;;
10088;SDS011;51898;49.864;8.550;2023-02-04T05:57:20;18.83;;;5.53;;
10088;SDS011;51898;49.864;8.550;2023-02-04T06:00:22;16.53;;;4.50;;
10088;SDS011;51898;49.864;8.550;2023-02-04T06:03:23;16.60;;;5.30;;
10088;SDS011;51898;49.864;8.550;2023-02-04T06:06:25;14.00;;;4.03;;
10088;SDS011;51898;49.864;8.550;2023-02-04T06:09:27;16.63;;;5.27;;
10088;SDS011;51898;49.864;8.550;2023-02-04T06:12:28;16.60;;;7.17;;
10088;SDS011;51898;49.864;8.550;2023-02-04T06:15:31;22.13;;;5.00;;
10088;SDS011;51898;49.864;8.550;2023-02-04T06:18:32;25.60;;;5.20;;
10088;SDS011;51898;49.864;8.550;2023-02-04T06:21:34;14.60;;;4.40;;
10088;SDS011;51898;49.864;8.550;2023-02-04T06:24:35;12.80;;;5.07;;
10088;SDS011;51898;49.864;8.550;2023-02-04T06:27:37;12.80;;;4.87;;
10088;SDS011;51898;49.864;8.550;2023-02-04T06:30:39;12.67;;;4.57;;
10088;SDS011;51898;49.864;8.550;2023-02-04T06:33:40;20.43;;;5.27;;
10088;SDS011;51898;49.864;8.550;2023-02-04T06:36:42;15.80;;;5.33;;
10088;SDS011;51898;49.864;8.550;2023-02-04T06:39:44;13.13;;;4.40;;
10088;SDS011;51898;49.864;8.550;2023-02-04T06:42:45;15.73;;;4.80;;
10088;SDS011;51898;49.864;8.550;2023-02-04T06:45:47;16.60;;;5.37;;
10088;SDS011;51898;49.864;8.550;2023-02-04T06:48:51;18.63;;;5.13;;
10088;SDS011;51898;49.864;8.550;2023-02-04T06:51:52;16.57;;;5.73;;
10088;SDS011;51898;49.864;8.550;2023-02-04T06:54:55;18.80;;;5.50;;
10088;SDS011;51898;49.864;8.550;2023-02-04T06:57:57;18.77;;;5.47;;
10088;SDS011;51898;49.864;8.550;2023-02-04T07:00:58;10.60;;;4.70;;
10088;SDS011;51898;49.864;8.550;2023-02-04T07:04:01;10.90;;;4.80;;
10088;SDS011;51898;49.864;8.550;2023-02-04T07:07:03;20.67;;;5.73;;
10088;SDS011;51898;49.864;8.550;2023-02-04T07:10:05;19.30;;;5.50;;
10088;SDS011;51898;49.864;8.550;2023-02-04T07:13:07;22.40;;;7.03;;
10088;SDS011;51898;49.864;8.550;2023-02-04T07:16:08;21.33;;;5.10;;
10088;SDS011;51898;49.864;8.550;2023-02-04T07:19:10;15.07;;;5.67;;
10088;SDS011;51898;49.864;8.550;2023-02-04T07:22:12;14.80;;;4.80;;
10088;SDS011;51898;49.864;8.550;2023-02-04T07:25:14;13.50;;;4.90;;
10088;SDS011;51898;49.864;8.550;2023-02-04T07:28:18;19.60;;;5.30;;
10088;SDS011;51898;49.864;8.550;2023-02-04T07:31:20;18.50;;;5.03;;
10088;SDS011;51898;49.864;8.550;2023-02-04T07:34:21;14.83;;;5.43;;
10088;SDS011;51898;49.864;8.550;2023-02-04T07:37:23;16.70;;;5.60;;
10088;SDS011;51898;49.864;8.550;2023-02-04T07:40:25;13.50;;;5.10;;
10088;SDS011;51898;49.864;8.550;2023-02-04T07:43:26;23.10;;;5.70;;
10088;SDS011;51898;49.864;8.550;2023-02-04T07:46:28;15.40;;;5.10;;
10088;SDS011;51898;49.864;8.550;2023-02-04T07:49:30;18.07;;;5.03;;
10088;SDS011;51898;49.864;8.550;2023-02-04T07:52:32;21.60;;;6.57;;
10088;SDS011;51898;49.864;8.550;2023-02-04T07:55:33;18.93;;;5.70;;
10088;SDS011;51898;49.864;8.550;2023-02-04T07:58:35;17.63;;;5.17;;
10088;SDS011;51898;49.864;8.550;2023-02-04T08:01:37;16.50;;;5.50;;
10088;SDS011;51898;49.864;8.550;2023-02-04T08:04:38;16.03;;;5.40;;
10088;SDS011;51898;49.864;8.550;2023-02-04T08:07:40;16.53;;;4.90;;
10088;SDS011;51898;49.864;8.550;2023-02-04T08:10:42;8.43;;;4.83;;
10088;SDS011;51898;49.864;8.550;2023-02-04T08:13:43;17.73;;;5.77;;
10088;SDS011;51898;49.864;8.550;2023-02-04T08:16:45;27.60;;;7.57;;
10088;SDS011;51898;49.864;8.550;2023-02-04T08:19:47;19.90;;;5.30;;
10088;SDS011;51898;49.864;8.550;2023-02-04T08:22:49;16.27;;;4.53;;
10088;SDS011;51898;49.864;8.550;2023-02-04T08:25:50;15.67;;;5.37;;
10088;SDS011;51898;49.864;8.550;2023-02-04T08:28:52;14.80;;;5.13;;
10088;SDS011;51898;49.864;8.550;2023-02-04T08:31:54;19.00;;;5.70;;
10088;SDS011;51898;49.864;8.550;2023-02-04T08:34:56;22.30;;;6.23;;
10088;SDS011;51898;49.864;8.550;2023-02-04T08:37:58;15.10;;;6.00;;
10088;SDS011;51898;49.864;8.550;2023-02-04T08:40:59;19.87;;;5.60;;
10088;SDS011;51898;49.864;8.550;2023-02-04T08:44:01;17.93;;;5.53;;
10088;SDS011;51898;49.864;8.550;2023-02-04T08:47:03;17.73;;;6.40;;
10088;SDS011;51898;49.864;8.550;2023-02-04T08:50:05;19.37;;;7.50;;
10088;SDS011;51898;49.864;8.550;2023-02-04T08:53:07;26.27;;;6.10;;
10088;SDS011;51898;49.864;8.550;2023-02-04T08:56:08;20.60;;;6.50;;
10088;SDS011;51898;49.864;8.550;2023-02-04T08:59:10;17.97;;;4.90;;
10088;SDS011;51898;49.864;8.550;2023-02-04T09:02:12;18.80;;;5.23;;
10088;SDS011;51898;49.864;8.550;2023-02-04T09:05:14;14.00;;;4.80;;
10088;SDS011;51898;49.864;8.550;2023-02-04T09:08:15;23.43;;;4.70;;
10088;SDS011;51898;49.864;8.550;2023-02-04T09:11:17;14.30;;;4.90;;
10088;SDS011;51898;49.864;8.550;2023-02-04T09:14:19;19.77;;;6.17;;
10088;SDS011;51898;49.864;8.550;2023-02-04T09:17:20;22.17;;;6.10;;
10088;SDS011;51898;49.864;8.550;2023-02-04T09:20:22;17.17;;;5.33;;
10088;SDS011;51898;49.864;8.550;2023-02-04T09:23:24;12.53;;;4.27;;
10088;SDS011;51898;49.864;8.550;2023-02-04T09:26:25;19.50;;;4.37;;
10088;SDS011;51898;49.864;8.550;2023-02-04T09:29:27;15.87;;;4.83;;
10088;SDS011;51898;49.864;8.550;2023-02-04T09:32:29;15.30;;;5.43;;
10088;SDS011;51898;49.864;8.550;2023-02-04T09:35:30;21.33;;;5.53;;
10088;SDS011;51898;49.864;8.550;2023-02-04T09:38:32;18.40;;;4.50;;
10088;SDS011;51898;49.864;8.550;2023-02-04T09:41:34;13.97;;;4.30;;
10088;SDS011;51898;49.864;8.550;2023-02-04T09:44:40;16.40;;;5.73;;
10088;SDS011;51898;49.864;8.550;2023-02-04T09:47:42;18.30;;;4.97;;
10088;SDS011;51898;49.864;8.550;2023-02-04T09:50:43;11.90;;;4.10;;
10088;SDS011;51898;49.864;8.550;2023-02-04T09:53:46;10.53;;;2.70;;
10088;SDS011;51898;49.864;8.550;2023-02-04T09:56:48;15.80;;;3.30;;
10088;SDS011;51898;49.864;8.550;2023-02-04T09:59:52;13.53;;;4.93;;
10088;SDS011;51898;49.864;8.550;2023-02-04T10:02:54;14.33;;;3.57;;
10088;SDS011;51898;49.864;8.550;2023-02-04T10:06:00;17.67;;;4.00;;
10088;SDS011;51898;49.864;8.550;2023-02-04T10:09:02;13.93;;;2.30;;
10088;SDS011;51898;49.864;8.550;2023-02-04T10:12:05;20.27;;;3.87;;
10088;SDS011;51898;49.864;8.550;2023-02-04T10:15:08;14.80;;;3.30;;
10088;SDS011;51898;49.864;8.550;2023-02-04T10:18:25;9.80;;;3.57;;
10088;SDS011;51898;49.864;8.550;2023-02-04T10:21:30;8.00;;;2.80;;
10088;SDS011;51898;49.864;8.550;2023-02-04T10:24:34;9.70;;;3.43;;
10088;SDS011;51898;49.864;8.550;2023-02-04T10:27:47;12.77;;;3.23;;
10088;SDS011;51898;49.864;8.550;2023-02-04T10:30:50;11.37;;;3.30;;
10088;SDS011;51898;49.864;8.550;2023-02-04T10:37:32;9.17;;;2.63;;
10088;SDS011;51898;49.864;8.550;2023-02-04T10:40:35;11.97;;;2.90;;
10088;SDS011;51898;49.864;8.550;2023-02-04T10:43:37;16.73;;;3.07;;
10088;SDS011;51898;49.864;8.550;2023-02-04T10:46:39;5.20;;;2.80;;
10088;SDS011;51898;49.864;8.550;2023-02-04T10:49:47;16.30;;;3.50;;
10088;SDS011;51898;49.864;8.550;2023-02-04T10:53:00;13.10;;;3.70;;
10088;SDS011;51898;49.864;8.550;2023-02-04T10:56:21;7.93;;;2.90;;
10088;SDS011;51898;49.864;8.550;2023-02-04T10:59:23;16.27;;;4.27;;
10088;SDS011;51898;49.864;8.550;2023-02-04T11:06:07;14.60;;;3.70;;
10088;SDS011;51898;49.864;8.550;2023-02-04T11:09:15;13.10;;;4.43;;
10088;SDS011;51898;49.864;8.550;2023-02-04T11:12:21;11.43;;;3.00;;
10088;SDS011;51898;49.864;8.550;2023-02-04T11:18:55;13.43;;;3.30;;
10088;SDS011;51898;49.864;8.550;2023-02-04T11:22:21;10.97;;;3.03;;
10088;SDS011;51898;49.864;8.550;2023-02-04T11:25:34;14.70;;;4.67;;
10088;SDS011;51898;49.864;8.550;2023-02-04T11:28:38;16.77;;;3.83;;
10088;SDS011;51898;49.864;8.550;2023-02-04T11:34:50;9.47;;;2.93;;
10088;SDS011;51898;49.864;8.550;2023-02-04T11:37:53;7.60;;;2.73;;
10088;SDS011;51898;49.864;8.550;2023-02-04T11:40:56;15.10;;;2.90;;
10088;SDS011;51898;49.864;8.550;2023-02-04T11:43:59;10.70;;;3.20;;
10088;SDS011;51898;49.864;8.550;2023-02-04T11:47:01;10.37;;;3.70;;
10088;SDS011;51898;49.864;8.550;2023-02-04T11:50:11;8.87;;;3.23;;
10088;SDS011;51898;49.864;8.550;2023-02-04T11:53:17;9.50;;;3.57;;
10088;SDS011;51898;49.864;8.550;2023-02-04T11:56:19;17.80;;;3.70;;
10088;SDS011;51898;49.864;8.550;2023-02-04T11:59:22;17.10;;;4.50;;
10088;SDS011;51898;49.864;8.550;2023-02-04T12:02:24;13.80;;;3.83;;
10088;SDS011;51898;49.864;8.550;2023-02-04T12:05:37;11.57;;;3.77;;
10088;SDS011;51898;49.864;8.550;2023-02-04T12:08:41;11.27;;;3.10;;
10088;SDS011;51898;49.864;8.550;2023-02-04T12:15:00;10.27;;;2.93;;
10088;SDS011;51898;49.864;8.550;2023-02-04T12:18:05;9.80;;;2.90;;
10088;SDS011;51898;49.864;8.550;2023-02-04T12:21:08;12.20;;;3.83;;
10088;SDS011;51898;49.864;8.550;2023-02-04T12:24:10;12.23;;;3.83;;
10088;SDS011;51898;49.864;8.550;2023-02-04T12:27:11;7.50;;;2.80;;
10088;SDS011;51898;49.864;8.550;2023-02-04T12:30:13;11.90;;;3.07;;
10088;SDS011;51898;49.864;8.550;2023-02-04T12:33:15;8.13;;;3.53;;
10088;SDS011;51898;49.864;8.550;2023-02-04T12:36:16;10.47;;;3.20;;
10088;SDS011;51898;49.864;8.550;2023-02-04T12:39:18;14.67;;;3.57;;
10088;SDS011;51898;49.864;8.550;2023-02-04T12:42:20;10.50;;;3.67;;
10088;SDS011;51898;49.864;8.550;2023-02-04T12:45:21;11.50;;;3.27;;
10088;SDS011;51898;49.864;8.550;2023-02-04T12:48:23;11.43;;;3.10;;
10088;SDS011;51898;49.864;8.550;2023-02-04T12:51:26;5.30;;;2.70;;
10088;SDS011;51898;49.864;8.550;2023-02-04T12:54:28;10.77;;;3.80;;
10088;SDS011;51898;49.864;8.550;2023-02-04T12:57:30;14.00;;;4.47;;
10088;SDS011;51898;49.864;8.550;2023-02-04T13:00:32;16.97;;;5.40;;
10088;SDS011;51898;49.864;8.550;2023-02-04T13:03:34;7.00;;;3.20;;
10088;SDS011;51898;49.864;8.550;2023-02-04T13:06:36;11.50;;;3.70;;
10088;SDS011;51898;49.864;8.550;2023-02-04T13:09:38;11.80;;;2.73;;
10088;SDS011;51898;49.864;8.550;2023-02-04T13:12:39;9.70;;;2.77;;
10088;SDS011;51898;49.864;8.550;2023-02-04T13:15:41;5.57;;;3.40;;
10088;SDS011;51898;49.864;8.550;2023-02-04T13:18:42;11.43;;;3.13;;
10088;SDS011;51898;49.864;8.550;2023-02-04T13:21:45;7.27;;;2.20;;
10088;SDS011;51898;49.864;8.550;2023-02-04T13:24:47;7.90;;;2.97;;
10088;SDS011;51898;49.864;8.550;2023-02-04T13:27:48;11.00;;;2.70;;
10088;SDS011;51898;49.864;8.550;2023-02-04T13:30:50;13.17;;;2.70;;
10088;SDS011;51898;49.864;8.550;2023-02-04T13:33:52;7.17;;;3.10;;
10088;SDS011;51898;49.864;8.550;2023-02-04T13:36:53;10.57;;;2.93;;
10088;SDS011;51898;49.864;8.550;2023-02-04T13:40:01;11.17;;;2.53;;
10088;SDS011;51898;49.864;8.550;2023-02-04T13:43:03;5.67;;;3.23;;
10088;SDS011;51898;49.864;8.550;2023-02-04T13:46:05;36.77;;;19.93;;
10088;SDS011;51898;49.864;8.550;2023-02-04T13:49:06;18.07;;;12.37;;
10088;SDS011;51898;49.864;8.550;2023-02-04T13:52:08;8.63;;;3.77;;
10088;SDS011;51898;49.864;8.550;2023-02-04T13:55:10;9.40;;;2.90;;
10088;SDS011;51898;49.864;8.550;2023-02-04T13:58:12;11.10;;;7.60;;
10088;SDS011;51898;49.864;8.550;2023-02-04T14:01:13;7.70;;;3.30;;
10088;SDS011;51898;49.864;8.550;2023-02-04T14:04:15;11.57;;;8.17;;
10088;SDS011;51898;49.864;8.550;2023-02-04T14:07:17;6.73;;;3.93;;
10088;SDS011;51898;49.864;8.550;2023-02-04T14:10:18;10.10;;;3.87;;
10088;SDS011;51898;49.864;8.550;2023-02-04T14:13:23;9.77;;;4.80;;
10088;SDS011;51898;49.864;8.550;2023-02-04T14:16:24;9.33;;;3.83;;
10088;SDS011;51898;49.864;8.550;2023-02-04T14:19:26;10.87;;;3.80;;
10088;SDS011;51898;49.864;8.550;2023-02-04T14:22:28;8.90;;;3.60;;
10088;SDS011;51898;49.864;8.550;2023-02-04T14:25:30;9.87;;;3.10;;
10088;SDS011;51898;49.864;8.550;2023-02-04T14:28:32;8.23;;;2.73;;
10088;SDS011;51898;49.864;8.550;2023-02-04T14:31:33;14.77;;;3.00;;
10088;SDS011;51898;49.864;8.550;2023-02-04T14:34:36;6.43;;;2.77;;
10088;SDS011;51898;49.864;8.550;2023-02-04T14:37:38;8.80;;;2.77;;
10088;SDS011;51898;49.864;8.550;2023-02-04T14:40:39;7.53;;;3.40;;
10088;SDS011;51898;49.864;8.550;2023-02-04T14:43:46;10.80;;;2.73;;
10088;SDS011;51898;49.864;8.550;2023-02-04T14:46:48;16.03;;;4.20;;
10088;SDS011;51898;49.864;8.550;2023-02-04T14:49:52;6.43;;;3.30;;
10088;SDS011;51898;49.864;8.550;2023-02-04T14:52:55;9.13;;;5.20;;
10088;SDS011;51898;49.864;8.550;2023-02-04T14:55:57;6.50;;;2.50;;
10088;SDS011;51898;49.864;8.550;2023-02-04T14:59:04;6.83;;;2.80;;
10088;SDS011;51898;49.864;8.550;2023-02-04T15:02:05;11.10;;;3.50;;
10088;SDS011;51898;49.864;8.550;2023-02-04T15:05:08;6.70;;;3.00;;
10088;SDS011;51898;49.864;8.550;2023-02-04T15:08:10;8.03;;;2.63;;
10088;SDS011;51898;49.864;8.550;2023-02-04T15:11:11;12.23;;;3.50;;
10088;SDS011;51898;49.864;8.550;2023-02-04T15:14:13;7.37;;;3.20;;
10088;SDS011;51898;49.864;8.550;2023-02-04T15:17:15;10.47;;;2.83;;
10088;SDS011;51898;49.864;8.550;2023-02-04T15:20:16;6.73;;;2.60;;
10088;SDS011;51898;49.864;8.550;2023-02-04T15:23:18;9.50;;;2.90;;
10088;SDS011;51898;49.864;8.550;2023-02-04T15:26:20;11.57;;;3.73;;
10088;SDS011;51898;49.864;8.550;2023-02-04T15:29:22;9.63;;;3.07;;
10088;SDS011;51898;49.864;8.550;2023-02-04T15:32:24;10.63;;;3.57;;
10088;SDS011;51898;49.864;8.550;2023-02-04T15:35:26;10.20;;;3.40;;
10088;SDS011;51898;49.864;8.550;2023-02-04T15:38:27;7.80;;;2.57;;
10088;SDS011;51898;49.864;8.550;2023-02-04T15:41:29;12.57;;;2.67;;
10088;SDS011;51898;49.864;8.550;2023-02-04T15:44:31;6.77;;;3.07;;
10088;SDS011;51898;49.864;8.550;2023-02-04T15:47:35;8.03;;;2.90;;
10088;SDS011;51898;49.864;8.550;2023-02-04T15:50:37;9.73;;;3.80;;
10088;SDS011;51898;49.864;8.550;2023-02-04T15:53:39;11.70;;;3.30;;
10088;SDS011;51898;49.864;8.550;2023-02-04T15:56:41;15.47;;;3.90;;
10088;SDS011;51898;49.864;8.550;2023-02-04T15:59:44;9.60;;;3.63;;
10088;SDS011;51898;49.864;8.550;2023-02-04T16:02:46;7.23;;;3.50;;
10088;SDS011;51898;49.864;8.550;2023-02-04T16:05:48;12.00;;;3.80;;
10088;SDS011;51898;49.864;8.550;2023-02-04T16:08:49;9.23;;;2.93;;
10088;SDS011;51898;49.864;8.550;2023-02-04T16:11:52;8.13;;;3.07;;
10088;SDS011;51898;49.864;8.550;2023-02-04T16:14:53;9.10;;;3.03;;
10088;SDS011;51898;49.864;8.550;2023-02-04T16:17:55;17.23;;;3.90;;
10088;SDS011;51898;49.864;8.550;2023-02-04T16:20:57;10.43;;;2.97;;
10088;SDS011;51898;49.864;8.550;2023-02-04T16:23:59;7.27;;;2.80;;
10088;SDS011;51898;49.864;8.550;2023-02-04T16:27:00;8.70;;;2.57;;
10088;SDS011;51898;49.864;8.550;2023-02-04T16:30:02;9.70;;;3.10;;
10088;SDS011;51898;49.864;8.550;2023-02-04T16:33:05;11.73;;;4.23;;
10088;SDS011;51898;49.864;8.550;2023-02-04T16:36:07;15.37;;;4.40;;
10088;SDS011;51898;49.864;8.550;2023-02-04T16:39:12;13.77;;;4.07;;
10088;SDS011;51898;49.864;8.550;2023-02-04T16:42:14;9.10;;;4.33;;
10088;SDS011;51898;49.864;8.550;2023-02-04T16:45:15;15.30;;;5.20;;
10088;SDS011;51898;49.864;8.550;2023-02-04T16:48:17;17.50;;;4.60;;
10088;SDS011;51898;49.864;8.550;2023-02-04T16:51:19;15.83;;;4.47;;
10088;SDS011;51898;49.864;8.550;2023-02-04T16:54:20;17.13;;;6.23;;
10088;SDS011;51898;49.864;8.550;2023-02-04T16:57:22;14.57;;;5.90;;
10088;SDS011;51898;49.864;8.550;2023-02-04T17:00:24;19.57;;;7.20;;
10088;SDS011;51898;49.864;8.550;2023-02-04T17:03:26;16.23;;;6.53;;
10088;SDS011;51898;49.864;8.550;2023-02-04T17:06:29;15.20;;;6.40;;
10088;SDS011;51898;49.864;8.550;2023-02-04T17:09:32;13.77;;;4.93;;
10088;SDS011;51898;49.864;8.550;2023-02-04T17:12:33;15.07;;;5.00;;
10088;SDS011;51898;49.864;8.550;2023-02-04T17:15:35;10.30;;;5.03;;
10088;SDS011;51898;49.864;8.550;2023-02-04T17:18:37;13.87;;;4.20;;
10088;SDS011;51898;49.864;8.550;2023-02-04T17:21:39;9.97;;;4.80;;
10088;SDS011;51898;49.864;8.550;2023-02-04T17:24:41;10.00;;;4.23;;
10088;SDS011;51898;49.864;8.550;2023-02-04T17:27:43;9.80;;;5.13;;
10088;SDS011;51898;49.864;8.550;2023-02-04T17:30:46;16.87;;;4.80;;
10088;SDS011;51898;49.864;8.550;2023-02-04T17:33:48;8.73;;;4.30;;
10088;SDS011;51898;49.864;8.550;2023-02-04T17:36:49;14.30;;;4.40;;
10088;SDS011;51898;49.864;8.550;2023-02-04T17:39:51;10.43;;;4.50;;
10088;SDS011;51898;49.864;8.550;2023-02-04T17:42:54;8.40;;;4.60;;
10088;SDS011;51898;49.864;8.550;2023-02-04T17:45:56;12.43;;;5.70;;
10088;SDS011;51898;49.864;8.550;2023-02-04T17:48:58;11.00;;;5.23;;
10088;SDS011;51898;49.864;8.550;2023-02-04T17:51:59;15.37;;;5.43;;
10088;SDS011;51898;49.864;8.550;2023-02-04T17:55:01;15.87;;;6.37;;
10088;SDS011;51898;49.864;8.550;2023-02-04T17:58:18;21.43;;;7.73;;
10088;SDS011;51898;49.864;8.550;2023-02-04T18:01:24;22.57;;;9.50;;
10088;SDS011;51898;49.864;8.550;2023-02-04T18:04:26;23.70;;;10.57;;
10088;SDS011;51898;49.864;8.550;2023-02-04T18:07:28;23.03;;;10.50;;
10088;SDS011;51898;49.864;8.550;2023-02-04T18:10:31;22.37;;;9.50;;
10088;SDS011;51898;49.864;8.550;2023-02-04T18:13:36;15.57;;;7.40;;
10088;SDS011;51898;49.864;8.550;2023-02-04T18:16:38;14.43;;;7.10;;
10088;SDS011;51898;49.864;8.550;2023-02-04T18:19:40;14.40;;;7.47;;
10088;SDS011;51898;49.864;8.550;2023-02-04T18:22:45;14.77;;;7.50;;
10088;SDS011;51898;49.864;8.550;2023-02-04T18:25:53;11.10;;;8.03;;
10088;SDS011;51898;49.864;8.550;2023-02-04T18:28:58;21.57;;;8.87;;